Time;durP1;ratioP1;P1;durP2;ratioP2;P2;SDS_P1;SDS_P2;PMS_P1;PMS_P2;Temp;Humidity;BMP_temperature;BMP_pressure;BME280_temperature;BME280_humidity;BME280_pressure;Samples;Min_cycle;Max_cycle;Signal;HPM_P1;HPM_P2
2023/02/26 00:02:10;;;;;;;2.33;1.97;;;2.30;99.90;;;;;;5154930;27;20202;-56
2023/02/26 00:04:38;;;;;;;4.20;2.00;;;2.10;99.90;;;;;;5154844;27;20301;-56
2023/02/26 00:07:05;;;;;;;4.40;2.30;;;2.00;99.90;;;;;;5154722;27;20198;-54
2023/02/26 00:09:32;;;;;;;4.13;2.43;;;1.90;99.90;;;;;;5154379;27;20309;-54
2023/02/26 00:12:00;;;;;;;3.50;2.07;;;1.80;99.90;;;;;;5154690;27;20235;-55
2023/02/26 00:14:27;;;;;;;3.93;2.00;;;1.80;99.90;;;;;;5153984;27;20213;-55
2023/02/26 00:17:07;;;;;;;4.53;1.90;;;1.80;99.90;;;;;;5155101;27;20201;-55
2023/02/26 00:19:34;;;;;;;3.90;1.70;;;1.80;99.90;;;;;;5159055;27;20304;-56
2023/02/26 00:22:03;;;;;;;4.17;1.70;;;1.70;99.90;;;;;;5158941;27;20227;-56
2023/02/26 00:24:29;;;;;;;3.70;2.00;;;1.70;99.90;;;;;;5158132;27;20592;-57
2023/02/26 00:26:56;;;;;;;2.60;1.77;;;1.70;99.90;;;;;;5158897;27;20618;-57
2023/02/26 00:29:23;;;;;;;3.47;2.10;;;1.60;99.90;;;;;;5158663;27;20222;-55
2023/02/26 00:31:50;;;;;;;5.63;2.03;;;1.50;99.90;;;;;;5158227;27;20202;-55
2023/02/26 00:34:18;;;;;;;3.67;2.03;;;1.40;99.90;;;;;;5158049;27;20198;-55
2023/02/26 00:36:49;;;;;;;3.63;1.93;;;1.40;99.90;;;;;;5157991;27;20603;-55
2023/02/26 00:39:32;;;;;;;3.10;1.93;;;1.30;99.90;;;;;;5158399;27;20230;-55
2023/02/26 00:41:59;;;;;;;3.63;2.00;;;1.30;99.90;;;;;;5158385;27;20206;-54
2023/02/26 00:44:26;;;;;;;4.50;2.37;;;1.20;99.90;;;;;;5158004;27;20209;-55
2023/02/26 00:46:59;;;;;;;5.13;2.20;;;1.20;99.90;;;;;;5158353;27;20199;-56
2023/02/26 00:49:35;;;;;;;3.40;1.90;;;1.20;99.90;;;;;;5158544;27;20225;-55
2023/02/26 00:52:04;;;;;;;3.77;2.00;;;1.20;99.90;;;;;;5158617;27;20202;-55
2023/02/26 00:54:34;;;;;;;4.20;2.10;;;1.10;99.90;;;;;;5158178;27;20206;-56
2023/02/26 00:57:03;;;;;;;3.20;2.13;;;1.10;99.90;;;;;;5158167;27;20214;-55
2023/02/26 00:59:29;;;;;;;4.33;2.23;;;1.10;99.90;;;;;;5158075;27;20234;-55
2023/02/26 01:01:56;;;;;;;3.67;2.37;;;1.00;99.90;;;;;;5157876;27;20258;-55
2023/02/26 01:04:25;;;;;;;2.33;2.10;;;1.00;99.90;;;;;;5157846;27;20581;-55
2023/02/26 01:06:54;;;;;;;2.33;1.80;;;0.90;99.90;;;;;;5157383;27;20203;-55
2023/02/26 01:09:25;;;;;;;4.63;2.13;;;0.90;99.90;;;;;;5157830;27;20218;-55
2023/02/26 01:11:56;;;;;;;4.27;1.90;;;0.90;99.90;;;;;;5157643;27;20229;-54
2023/02/26 01:14:23;;;;;;;4.30;2.10;;;0.90;99.90;;;;;;5157426;27;20206;-54
2023/02/26 01:16:56;;;;;;;2.60;1.93;;;0.80;99.90;;;;;;5157490;27;20204;-56
2023/02/26 01:19:33;;;;;;;4.23;1.73;;;0.80;99.90;;;;;;5157669;27;20237;-54
2023/02/26 01:22:07;;;;;;;2.80;2.20;;;0.80;99.90;;;;;;5157152;27;20589;-54
2023/02/26 01:24:36;;;;;;;4.77;2.13;;;0.80;99.90;;;;;;5157287;27;20206;-54
2023/02/26 01:27:04;;;;;;;4.00;2.00;;;0.70;99.90;;;;;;5157811;27;20217;-55
2023/02/26 01:29:32;;;;;;;3.00;2.07;;;0.70;99.90;;;;;;5157039;27;20266;-55
2023/02/26 01:32:05;;;;;;;3.67;2.43;;;0.70;99.90;;;;;;5157626;27;20209;-55
2023/02/26 01:34:36;;;;;;;4.73;2.20;;;0.60;99.90;;;;;;5157167;27;20206;-55
2023/02/26 01:37:13;;;;;;;5.40;2.47;;;0.60;99.90;;;;;;5157089;27;20210;-55
2023/02/26 01:39:44;;;;;;;4.57;2.30;;;0.60;99.90;;;;;;5157104;27;20289;-54
2023/02/26 01:42:18;;;;;;;2.90;2.13;;;0.60;99.90;;;;;;5157162;27;20213;-54
2023/02/26 01:44:54;;;;;;;4.10;2.27;;;0.60;99.90;;;;;;5156818;27;20206;-56
2023/02/26 01:47:27;;;;;;;4.87;2.27;;;0.60;99.90;;;;;;5157008;27;20201;-55
2023/02/26 01:49:55;;;;;;;3.10;2.20;;;0.60;99.90;;;;;;5156867;27;20226;-54
2023/02/26 01:53:00;;;;;;;5.10;1.97;;;0.60;99.90;;;;;;5156948;27;20202;-55
2023/02/26 01:55:28;;;;;;;5.33;2.57;;;0.50;99.90;;;;;;5156474;27;20262;-55
2023/02/26 01:57:58;;;;;;;2.40;2.20;;;0.50;99.90;;;;;;5156652;27;20206;-54
2023/02/26 02:00:25;;;;;;;4.53;2.60;;;0.50;99.90;;;;;;5156717;27;20264;-55
2023/02/26 02:02:52;;;;;;;2.80;2.17;;;0.40;99.90;;;;;;5156531;27;20224;-54
2023/02/26 02:05:24;;;;;;;3.37;2.17;;;0.40;99.90;;;;;;5156346;27;20259;-54
2023/02/26 02:07:51;;;;;;;4.13;2.20;;;0.50;99.90;;;;;;5156504;27;20202;-56
2023/02/26 02:10:18;;;;;;;4.57;2.80;;;0.40;99.90;;;;;;5156313;27;20585;-55
2023/02/26 02:12:51;;;;;;;3.87;2.20;;;0.40;99.90;;;;;;5156318;27;20206;-54
2023/02/26 02:15:25;;;;;;;4.07;2.37;;;0.40;99.90;;;;;;5156132;27;20198;-55
2023/02/26 02:18:00;;;;;;;4.27;2.10;;;0.40;99.90;;;;;;5156443;27;20205;-55
2023/02/26 02:20:57;;;;;;;3.80;1.97;;;0.40;99.90;;;;;;5156494;27;20249;-56
2023/02/26 02:23:29;;;;;;;4.00;2.10;;;0.40;99.90;;;;;;5156397;27;20209;-55
2023/02/26 02:26:22;;;;;;;5.97;2.77;;;0.40;99.90;;;;;;5157087;27;20223;-56
2023/02/26 02:29:07;;;;;;;3.80;2.60;;;0.30;99.90;;;;;;5139550;27;20202;-54
2023/02/26 02:31:40;;;;;;;4.50;3.30;;;0.30;99.90;;;;;;5156731;27;20206;-55
2023/02/26 02:34:13;;;;;;;5.33;2.97;;;0.20;99.90;;;;;;5156083;27;20591;-54
2023/02/26 02:36:44;;;;;;;4.13;2.80;;;0.10;99.90;;;;;;5156369;27;20214;-54
2023/02/26 02:39:15;;;;;;;4.90;2.93;;;0.10;99.90;;;;;;5156008;27;20226;-55
2023/02/26 02:41:47;;;;;;;4.47;3.10;;;0.00;99.90;;;;;;5155327;27;20206;-56
2023/02/26 02:44:18;;;;;;;5.20;3.00;;;0.00;99.90;;;;;;5156349;27;20206;-55
2023/02/26 02:46:49;;;;;;;6.60;2.67;;;-0.20;99.90;;;;;;5156053;27;20206;-55
2023/02/26 02:49:21;;;;;;;4.77;2.97;;;-0.20;99.90;;;;;;5156575;27;20214;-57
2023/02/26 02:51:52;;;;;;;5.23;3.03;;;-0.30;99.90;;;;;;5156632;27;20202;-56
2023/02/26 02:54:24;;;;;;;6.07;2.97;;;-0.30;99.90;;;;;;5156416;27;20205;-57
2023/02/26 02:56:56;;;;;;;4.77;2.63;;;-0.40;99.90;;;;;;5156796;27;20210;-57
2023/02/26 02:59:37;;;;;;;2.73;2.17;;;-0.40;99.90;;;;;;5157356;27;20693;-57
2023/02/26 03:02:11;;;;;;;3.63;2.40;;;-0.40;99.90;;;;;;5158167;27;20198;-57
2023/02/26 03:04:39;;;;;;;5.27;2.77;;;-0.40;99.90;;;;;;5157399;27;20213;-59
2023/02/26 03:07:06;;;;;;;4.53;2.60;;;-0.40;99.90;;;;;;5158172;27;20202;-57
2023/02/26 03:09:33;;;;;;;4.30;2.70;;;-0.40;99.90;;;;;;5156566;27;20275;-56
2023/02/26 03:11:59;;;;;;;4.00;2.80;;;-0.40;99.90;;;;;;5155712;27;20206;-57
2023/02/26 03:14:27;;;;;;;5.63;2.90;;;-0.40;99.90;;;;;;5155164;27;20664;-57
2023/02/26 03:17:14;;;;;;;4.97;3.30;;;-0.40;99.90;;;;;;5155134;27;20202;-55
2023/02/26 03:19:49;;;;;;;5.60;3.60;;;-0.40;99.90;;;;;;5154418;27;20222;-55
2023/02/26 03:22:22;;;;;;;6.87;4.03;;;-0.30;99.90;;;;;;5154611;27;20201;-55
2023/02/26 03:24:55;;;;;;;8.20;4.33;;;-0.10;99.90;;;;;;5154173;27;20665;-57
2023/02/26 03:27:26;;;;;;;5.93;3.90;;;0.10;99.90;;;;;;5154408;27;20227;-55
2023/02/26 03:29:58;;;;;;;6.73;3.30;;;0.30;99.90;;;;;;5154040;27;20230;-55
2023/02/26 03:32:29;;;;;;;7.00;3.00;;;0.40;99.90;;;;;;5154717;27;20206;-55
2023/02/26 03:35:02;;;;;;;4.73;2.80;;;0.50;99.90;;;;;;5153972;27;20661;-55
2023/02/26 03:37:34;;;;;;;3.43;2.30;;;0.60;99.90;;;;;;5154347;27;20202;-54
2023/02/26 03:40:06;;;;;;;4.57;2.70;;;0.40;99.90;;;;;;5154112;27;20230;-55
2023/02/26 03:42:37;;;;;;;6.33;3.03;;;0.30;99.90;;;;;;5154562;27;20665;-57
2023/02/26 03:45:08;;;;;;;3.40;2.40;;;0.30;99.90;;;;;;5155762;27;20206;-56
2023/02/26 03:47:37;;;;;;;3.60;2.80;;;0.20;99.90;;;;;;5154437;27;20212;-57
2023/02/26 03:50:10;;;;;;;3.93;2.97;;;0.20;99.90;;;;;;5153597;27;20221;-57
2023/02/26 03:52:41;;;;;;;5.13;3.00;;;0.00;99.90;;;;;;5153878;27;20213;-57
2023/02/26 03:55:13;;;;;;;5.90;3.23;;;0.00;99.90;;;;;;5154407;27;20206;-57
2023/02/26 03:57:40;;;;;;;4.50;2.90;;;0.00;99.90;;;;;;5154583;27;20198;-57
2023/02/26 04:00:09;;;;;;;6.30;3.10;;;-0.10;99.90;;;;;;5154827;27;20225;-56
2023/02/26 04:02:43;;;;;;;5.80;3.23;;;-0.10;99.90;;;;;;5155003;27;20665;-57
2023/02/26 04:05:13;;;;;;;5.00;2.70;;;-0.20;99.90;;;;;;5154426;27;20202;-57
2023/02/26 04:07:40;;;;;;;4.47;3.00;;;-0.30;99.90;;;;;;5155111;27;20213;-57
2023/02/26 04:10:09;;;;;;;6.47;3.10;;;-0.30;99.90;;;;;;5154230;27;20222;-54
2023/02/26 04:12:35;;;;;;;5.47;3.17;;;-0.40;99.90;;;;;;5154655;27;20665;-57
2023/02/26 04:15:04;;;;;;;4.50;2.97;;;-0.40;99.90;;;;;;5154583;27;20638;-57
2023/02/26 04:17:30;;;;;;;6.60;3.23;;;-0.40;99.90;;;;;;5154383;27;20305;-54
2023/02/26 04:19:58;;;;;;;5.73;3.00;;;-0.40;99.90;;;;;;5153784;27;20233;-55
2023/02/26 04:22:25;;;;;;;8.20;3.50;;;-0.40;99.90;;;;;;5154255;27;20202;-56
2023/02/26 04:24:52;;;;;;;6.90;2.80;;;-0.40;99.90;;;;;;5154500;27;20205;-57
2023/02/26 04:27:18;;;;;;;5.30;2.80;;;-0.50;99.90;;;;;;5154617;27;20329;-55
2023/02/26 04:29:45;;;;;;;4.97;2.63;;;-0.50;99.90;;;;;;5154201;27;20728;-54
2023/02/26 04:32:12;;;;;;;4.33;2.60;;;-0.50;99.90;;;;;;5153904;27;20206;-55
2023/02/26 04:34:39;;;;;;;4.97;2.50;;;-0.50;99.90;;;;;;5154223;27;20206;-57
2023/02/26 04:37:07;;;;;;;5.33;3.40;;;-0.70;99.90;;;;;;5154207;27;20808;-57
2023/02/26 04:39:34;;;;;;;4.80;2.83;;;-0.80;99.90;;;;;;5154116;27;20222;-57
2023/02/26 04:42:03;;;;;;;4.20;2.93;;;-0.80;99.90;;;;;;5154230;27;20202;-56
2023/02/26 04:44:29;;;;;;;4.20;2.73;;;-0.80;99.90;;;;;;5153973;27;20210;-54
2023/02/26 04:46:56;;;;;;;5.20;3.13;;;-0.80;99.90;;;;;;5153695;27;20202;-54
2023/02/26 04:49:23;;;;;;;5.70;2.90;;;-0.80;99.90;;;;;;5154186;27;20218;-56
2023/02/26 04:51:50;;;;;;;4.30;2.57;;;-0.80;99.90;;;;;;5154538;27;20698;-54
2023/02/26 04:54:18;;;;;;;3.07;2.60;;;-0.80;99.90;;;;;;5153827;27;20202;-53
2023/02/26 04:56:45;;;;;;;5.27;2.90;;;-0.80;99.90;;;;;;5153705;27;20688;-54
2023/02/26 04:59:11;;;;;;;5.57;3.10;;;-0.80;99.90;;;;;;5153596;27;20222;-55
2023/02/26 05:01:38;;;;;;;4.17;3.13;;;-0.80;99.90;;;;;;5153932;27;20206;-54
2023/02/26 05:04:05;;;;;;;6.07;3.80;;;-0.90;99.90;;;;;;5155483;27;20254;-54
2023/02/26 05:06:32;;;;;;;5.80;4.37;;;-1.00;99.90;;;;;;5157690;27;20254;-55
2023/02/26 05:08:59;;;;;;;6.83;3.93;;;-1.00;99.90;;;;;;5157553;27;20206;-54
2023/02/26 05:11:27;;;;;;;7.93;4.03;;;-1.10;99.90;;;;;;5157604;27;20202;-56
2023/02/26 05:13:53;;;;;;;5.23;3.47;;;-1.20;99.90;;;;;;5157480;27;20202;-57
2023/02/26 05:16:20;;;;;;;4.00;3.17;;;-1.30;99.90;;;;;;5157687;27;20207;-57
2023/02/26 05:18:47;;;;;;;4.93;2.60;;;-1.40;99.90;;;;;;5157919;27;20206;-57
2023/02/26 05:21:14;;;;;;;4.90;2.87;;;-1.40;99.90;;;;;;5157308;27;20225;-55
2023/02/26 05:23:40;;;;;;;4.63;2.90;;;-1.40;99.90;;;;;;5157240;27;20206;-58
2023/02/26 05:26:07;;;;;;;5.13;3.03;;;-1.50;99.90;;;;;;5157805;27;20255;-55
2023/02/26 05:28:36;;;;;;;5.97;2.90;;;-1.50;99.90;;;;;;5157461;27;20206;-56
2023/02/26 05:31:02;;;;;;;4.57;2.90;;;-1.60;99.90;;;;;;5157791;27;20253;-58
2023/02/26 05:33:29;;;;;;;3.47;2.53;;;-1.60;99.90;;;;;;5157001;27;20301;-55
2023/02/26 05:35:56;;;;;;;4.90;3.00;;;-1.70;99.90;;;;;;5157068;27;20198;-58
2023/02/26 05:38:23;;;;;;;3.60;2.60;;;-1.70;99.90;;;;;;5157655;27;20620;-57
2023/02/26 05:40:50;;;;;;;4.33;2.90;;;-1.80;99.90;;;;;;5157464;27;20229;-57
2023/02/26 05:43:17;;;;;;;4.40;2.70;;;-1.80;99.90;;;;;;5157314;27;20206;-57
2023/02/26 05:45:45;;;;;;;5.93;2.60;;;-1.80;99.90;;;;;;5157206;27;20209;-55
2023/02/26 05:48:12;;;;;;;4.57;3.00;;;-1.90;99.90;;;;;;5156939;27;20210;-56
2023/02/26 05:50:39;;;;;;;3.97;2.80;;;-1.90;99.90;;;;;;5156994;27;20214;-56
2023/02/26 05:53:05;;;;;;;6.13;3.07;;;-1.90;99.90;;;;;;5156807;27;20709;-55
2023/02/26 05:55:32;;;;;;;4.03;2.67;;;-1.90;99.90;;;;;;5157508;27;20213;-57
2023/02/26 05:57:59;;;;;;;4.67;2.97;;;-1.90;99.90;;;;;;5158819;27;20247;-57
2023/02/26 06:00:26;;;;;;;5.50;3.07;;;-1.90;99.90;;;;;;5158360;27;20232;-56
2023/02/26 06:02:54;;;;;;;3.93;2.80;;;-1.90;99.90;;;;;;5157891;27;20292;-58
2023/02/26 06:05:20;;;;;;;7.70;4.30;;;-1.90;99.90;;;;;;5157635;27;20580;-58
2023/02/26 06:07:47;;;;;;;4.77;3.20;;;-1.80;99.90;;;;;;5157566;27;20210;-56
2023/02/26 06:10:14;;;;;;;5.60;3.03;;;-1.80;99.90;;;;;;5156781;27;20225;-55
2023/02/26 06:12:41;;;;;;;3.83;3.00;;;-1.70;99.90;;;;;;5157661;27;20202;-57
2023/02/26 06:15:09;;;;;;;4.50;2.70;;;-1.60;99.90;;;;;;5157309;27;20209;-57
2023/02/26 06:17:36;;;;;;;3.37;2.57;;;-1.80;99.90;;;;;;5157147;27;20600;-55
2023/02/26 06:20:05;;;;;;;4.00;2.50;;;-1.80;99.90;;;;;;5156813;27;20233;-53
2023/02/26 06:22:32;;;;;;;6.23;2.50;;;-1.80;99.90;;;;;;5155598;27;20213;-55
2023/02/26 06:24:59;;;;;;;3.97;2.40;;;-1.70;99.90;;;;;;5155450;27;20213;-55
2023/02/26 06:27:26;;;;;;;3.30;2.10;;;-1.60;99.90;;;;;;5155930;27;20552;-53
2023/02/26 06:29:53;;;;;;;3.93;2.57;;;-1.60;99.90;;;;;;5155519;27;20225;-52
2023/02/26 06:32:19;;;;;;;3.83;2.90;;;-1.40;99.90;;;;;;5155562;27;20205;-54
2023/02/26 06:34:46;;;;;;;6.00;3.43;;;-1.20;99.90;;;;;;5155208;27;20203;-52
2023/02/26 06:37:15;;;;;;;3.73;2.60;;;-1.00;99.90;;;;;;5155077;27;20206;-51
2023/02/26 06:39:41;;;;;;;7.17;2.80;;;-0.80;99.90;;;;;;5155376;27;20310;-53
2023/02/26 06:42:08;;;;;;;7.20;2.77;;;-0.60;99.90;;;;;;5155497;27;20206;-51
2023/02/26 06:44:35;;;;;;;5.03;2.57;;;-0.40;99.90;;;;;;5155060;27;20202;-54
2023/02/26 06:47:02;;;;;;;12.30;6.97;;;-0.20;99.90;;;;;;5154820;27;20206;-52
2023/02/26 06:49:28;;;;;;;4.33;2.40;;;-0.10;99.90;;;;;;5155031;27;20226;-51
2023/02/26 06:51:55;;;;;;;6.70;4.07;;;0.10;99.90;;;;;;5154931;27;20198;-50
2023/02/26 06:54:23;;;;;;;6.97;4.17;;;0.20;99.90;;;;;;5154968;27;20233;-50
2023/02/26 06:56:50;;;;;;;6.23;3.43;;;0.30;99.90;;;;;;5154824;27;20214;-55
2023/02/26 06:59:17;;;;;;;7.07;3.53;;;0.50;99.90;;;;;;5154908;27;20222;-54
2023/02/26 07:01:43;;;;;;;6.53;3.93;;;0.60;99.90;;;;;;5154804;27;20222;-54
2023/02/26 07:04:10;;;;;;;6.90;4.13;;;0.70;99.90;;;;;;5154738;27;20588;-54
2023/02/26 07:06:37;;;;;;;6.47;3.63;;;0.60;99.90;;;;;;5154986;27;20198;-53
2023/02/26 07:09:03;;;;;;;6.97;3.60;;;0.60;99.90;;;;;;5154657;27;20566;-54
2023/02/26 07:11:31;;;;;;;7.33;3.60;;;0.50;99.90;;;;;;5154787;27;20247;-54
2023/02/26 07:13:59;;;;;;;6.17;4.03;;;0.60;99.90;;;;;;5154497;27;20206;-51
2023/02/26 07:16:26;;;;;;;10.67;5.10;;;1.00;99.90;;;;;;5154344;27;20210;-54
2023/02/26 07:18:53;;;;;;;9.43;5.00;;;1.70;99.90;;;;;;5154216;27;20217;-51
2023/02/26 07:21:19;;;;;;;9.60;5.27;;;1.80;99.90;;;;;;5154706;27;20226;-53
2023/02/26 07:23:46;;;;;;;10.50;5.20;;;1.60;99.90;;;;;;5154281;27;20225;-50
2023/02/26 07:26:13;;;;;;;8.17;4.60;;;1.40;99.90;;;;;;5154063;27;20209;-52
2023/02/26 07:28:41;;;;;;;6.87;4.07;;;1.20;99.90;;;;;;5154163;27;20202;-53
2023/02/26 07:31:08;;;;;;;11.43;5.07;;;1.30;99.90;;;;;;5154119;27;20209;-51
2023/02/26 07:33:35;;;;;;;9.50;5.47;;;1.40;99.90;;;;;;5154224;27;20576;-50
2023/02/26 07:36:01;;;;;;;8.10;4.67;;;1.60;99.90;;;;;;5154066;27;20214;-51
2023/02/26 07:38:28;;;;;;;6.00;3.20;;;1.90;99.90;;;;;;5154395;27;20209;-51
2023/02/26 07:40:56;;;;;;;4.70;2.83;;;2.20;99.90;;;;;;5154019;27;20225;-54
2023/02/26 07:43:23;;;;;;;4.47;2.00;;;2.40;99.90;;;;;;5154616;27;20202;-50
2023/02/26 07:45:52;;;;;;;4.43;2.40;;;2.50;99.90;;;;;;5153536;27;20210;-52
2023/02/26 07:48:18;;;;;;;3.93;1.80;;;2.60;99.90;;;;;;5154094;27;20634;-52
2023/02/26 07:50:45;;;;;;;4.57;1.90;;;2.50;99.90;;;;;;5154022;27;20222;-53
2023/02/26 07:53:12;;;;;;;4.40;1.97;;;2.50;99.90;;;;;;5153996;27;20202;-54
2023/02/26 07:55:39;;;;;;;4.83;1.80;;;2.50;99.90;;;;;;5153615;27;20214;-51
2023/02/26 07:58:05;;;;;;;4.47;1.80;;;2.60;99.90;;;;;;5154074;27;20210;-50
2023/02/26 08:00:32;;;;;;;3.27;1.73;;;2.90;99.90;;;;;;5154253;27;20317;-53
2023/02/26 08:03:00;;;;;;;5.83;2.10;;;3.10;99.90;;;;;;5154141;27;20225;-53
2023/02/26 08:05:27;;;;;;;4.73;2.27;;;3.40;99.90;;;;;;5153756;27;20689;-51
2023/02/26 08:07:54;;;;;;;4.77;2.10;;;3.60;99.90;;;;;;5153864;27;20209;-54
2023/02/26 08:10:20;;;;;;;6.03;2.53;;;3.50;99.90;;;;;;5153583;27;20730;-51
2023/02/26 08:12:47;;;;;;;4.53;2.33;;;3.40;99.90;;;;;;5153685;27;20202;-54
2023/02/26 08:15:14;;;;;;;5.23;1.57;;;3.20;99.90;;;;;;5153619;27;20206;-55
2023/02/26 08:17:40;;;;;;;3.63;1.70;;;3.10;99.90;;;;;;5153863;27;20247;-53
2023/02/26 08:20:10;;;;;;;6.73;2.00;;;3.10;99.90;;;;;;5153655;27;20237;-56
2023/02/26 08:22:37;;;;;;;5.30;1.70;;;3.20;99.90;;;;;;5154294;27;20198;-53
2023/02/26 08:25:05;;;;;;;3.93;1.87;;;3.10;99.90;;;;;;5153892;27;20213;-54
2023/02/26 08:27:31;;;;;;;2.83;1.90;;;3.00;99.90;;;;;;5154654;27;20255;-54
2023/02/26 08:29:58;;;;;;;5.83;2.23;;;3.00;99.90;;;;;;5154192;27;20340;-55
2023/02/26 08:32:27;;;;;;;3.20;1.60;;;3.00;99.90;;;;;;5154805;27;20226;-53
2023/02/26 08:34:54;;;;;;;3.90;1.70;;;3.00;99.90;;;;;;5154504;27;20230;-53
2023/02/26 08:37:23;;;;;;;4.03;1.70;;;2.90;99.90;;;;;;5149894;27;20289;-55
2023/02/26 08:39:49;;;;;;;3.73;1.60;;;2.70;99.90;;;;;;5151443;27;20226;-55
2023/02/26 08:42:19;;;;;;;3.77;2.10;;;2.70;99.90;;;;;;5157046;27;20309;-58
2023/02/26 08:44:46;;;;;;;5.70;1.80;;;2.90;99.90;;;;;;5156371;27;20202;-58
2023/02/26 08:47:13;;;;;;;3.70;1.90;;;3.10;99.90;;;;;;5156682;27;20210;-57
2023/02/26 08:49:39;;;;;;;4.03;1.80;;;3.10;99.90;;;;;;5166728;22;20232;-67
2023/02/26 08:52:07;;;;;;;2.77;1.50;;;3.20;99.90;;;;;;5085295;28;20200;-64
2023/02/26 08:54:35;;;;;;;4.57;1.80;;;3.20;99.90;;;;;;5094019;28;20698;-65
2023/02/26 08:57:02;;;;;;;3.47;1.80;;;3.30;99.90;;;;;;5094217;28;20613;-64
2023/02/26 08:59:29;;;;;;;3.40;1.50;;;3.20;99.90;;;;;;5094551;28;20314;-65
2023/02/26 09:01:55;;;;;;;3.57;1.60;;;3.20;99.90;;;;;;5094246;28;20228;-64
2023/02/26 09:04:22;;;;;;;3.57;1.57;;;3.10;99.90;;;;;;5093537;28;20204;-65
2023/02/26 09:06:49;;;;;;;2.33;1.20;;;2.90;99.90;;;;;;5094348;28;20243;-65
2023/02/26 09:09:16;;;;;;;3.33;1.30;;;2.80;99.90;;;;;;5093646;28;20675;-64
2023/02/26 09:11:45;;;;;;;2.77;1.30;;;2.60;99.90;;;;;;5094365;28;20204;-65
2023/02/26 09:14:11;;;;;;;2.37;1.03;;;2.50;99.90;;;;;;5093939;28;20208;-65
2023/02/26 09:16:38;;;;;;;1.97;1.30;;;2.30;99.90;;;;;;5093621;28;20208;-65
2023/02/26 09:19:06;;;;;;;2.87;1.23;;;2.40;99.90;;;;;;5093804;28;20212;-64
2023/02/26 09:21:34;;;;;;;2.73;0.93;;;2.40;99.90;;;;;;5094422;28;20253;-64
2023/02/26 09:24:01;;;;;;;2.83;0.90;;;2.40;99.90;;;;;;5093391;28;20750;-63
2023/02/26 09:26:28;;;;;;;2.33;1.13;;;2.40;99.90;;;;;;5094050;28;20212;-63
2023/02/26 09:28:56;;;;;;;4.37;1.30;;;2.40;99.90;;;;;;5093601;28;20667;-64
2023/02/26 09:31:23;;;;;;;2.33;1.20;;;2.40;99.90;;;;;;5093890;28;20221;-64
2023/02/26 09:33:49;;;;;;;2.73;1.10;;;2.30;99.90;;;;;;5093378;28;20204;-64
2023/02/26 09:36:16;;;;;;;1.60;1.00;;;2.40;99.90;;;;;;5093348;28;20204;-64
2023/02/26 09:38:44;;;;;;;4.67;1.30;;;2.50;99.90;;;;;;5093307;28;20706;-64
2023/02/26 09:41:17;;;;;;;2.50;1.30;;;2.60;99.90;;;;;;5092994;28;20227;-65
2023/02/26 09:44:02;;;;;;;3.90;1.40;;;2.70;99.90;;;;;;5093367;28;20277;-65
2023/02/26 09:46:37;;;;;;;4.43;1.10;;;2.80;99.90;;;;;;5093333;28;20717;-65
2023/02/26 09:49:15;;;;;;;2.00;1.40;;;2.80;99.90;;;;;;5092876;28;20298;-65
2023/02/26 09:51:43;;;;;;;4.20;1.70;;;2.90;99.90;;;;;;5093100;28;20678;-64
2023/02/26 09:54:16;;;;;;;3.83;1.67;;;2.80;99.90;;;;;;5092598;28;20719;-64
2023/02/26 09:56:44;;;;;;;3.20;1.60;;;2.90;99.90;;;;;;5093200;28;20243;-63
2023/02/26 09:59:12;;;;;;;1.50;1.40;;;3.00;99.90;;;;;;5093234;28;20200;-64
2023/02/26 10:01:48;;;;;;;2.53;1.30;;;3.30;99.90;;;;;;5093469;28;20283;-65
2023/02/26 10:04:25;;;;;;;1.60;1.00;;;3.40;99.90;;;;;;5092798;28;20200;-65
2023/02/26 10:07:04;;;;;;;2.23;1.40;;;3.50;99.90;;;;;;5093252;28;20235;-66
2023/02/26 10:09:42;;;;;;;1.93;1.27;;;3.50;99.90;;;;;;5093556;28;20231;-64
2023/02/26 10:12:12;;;;;;;3.00;1.27;;;3.60;99.90;;;;;;5093237;28;20208;-65
2023/02/26 10:14:46;;;;;;;2.33;1.20;;;3.70;99.90;;;;;;5093245;28;20204;-64
2023/02/26 10:17:19;;;;;;;2.87;1.47;;;3.70;99.90;;;;;;5093050;28;20525;-64
2023/02/26 10:19:50;;;;;;;3.47;1.53;;;3.70;99.90;;;;;;5093113;28;20234;-64
2023/02/26 10:22:23;;;;;;;2.10;1.27;;;3.80;99.90;;;;;;5093104;28;20247;-65
2023/02/26 10:24:56;;;;;;;7.30;2.93;;;4.00;99.90;;;;;;5092774;28;20261;-65
2023/02/26 10:27:36;;;;;;;3.30;1.93;;;4.20;99.90;;;;;;5092622;28;20239;-65
2023/02/26 10:30:10;;;;;;;2.30;1.30;;;4.20;99.90;;;;;;5092287;28;20220;-66
2023/02/26 10:32:43;;;;;;;2.10;1.47;;;4.40;99.90;;;;;;5092384;28;20204;-64
2023/02/26 10:35:14;;;;;;;3.50;1.50;;;4.50;99.90;;;;;;5092354;28;20563;-64
2023/02/26 10:37:47;;;;;;;5.17;2.77;;;4.50;99.90;;;;;;5092339;28;20211;-64
2023/02/26 10:40:18;;;;;;;3.50;2.03;;;4.60;99.90;;;;;;5092259;28;20715;-64
2023/02/26 10:42:50;;;;;;;2.30;1.30;;;4.80;99.90;;;;;;5091766;28;20231;-66
2023/02/26 10:45:35;;;;;;;3.40;1.50;;;4.80;99.90;;;;;;5092305;28;20632;-64
2023/02/26 10:48:16;;;;;;;3.83;2.00;;;4.90;99.90;;;;;;5092214;28;20474;-65
2023/02/26 10:50:48;;;;;;;4.03;2.57;;;4.70;99.90;;;;;;5091805;28;20658;-67
2023/02/26 10:53:15;;;;;;;2.47;1.50;;;4.50;99.90;;;;;;5091398;28;20580;-65
2023/02/26 10:55:46;;;;;;;1.77;1.20;;;4.40;99.90;;;;;;5091449;28;20212;-63
2023/02/26 10:58:16;;;;;;;3.53;2.03;;;4.40;99.90;;;;;;5092177;28;20215;-67
2023/02/26 11:00:46;;;;;;;1.80;1.33;;;4.30;99.90;;;;;;5091723;28;20315;-67
2023/02/26 11:03:17;;;;;;;1.90;1.30;;;4.40;99.90;;;;;;5091500;28;20236;-68
2023/02/26 11:05:44;;;;;;;1.23;1.00;;;4.50;99.90;;;;;;5091561;28;20592;-63
2023/02/26 11:08:15;;;;;;;1.67;1.00;;;4.70;99.90;;;;;;5091807;28;20642;-63
2023/02/26 11:10:50;;;;;;;1.77;1.17;;;4.70;99.90;;;;;;5091944;28;20316;-63
2023/02/26 11:13:17;;;;;;;1.53;0.97;;;4.70;99.90;;;;;;5091875;28;20200;-63
2023/02/26 11:15:49;;;;;;;2.97;1.20;;;4.80;99.90;;;;;;5091578;28;20277;-63
2023/02/26 11:18:19;;;;;;;1.20;1.10;;;5.00;99.90;;;;;;5091374;28;20304;-63
2023/02/26 11:20:47;;;;;;;0.87;0.67;;;5.20;99.90;;;;;;5091769;28;20378;-64
2023/02/26 11:23:17;;;;;;;3.73;1.00;;;5.20;99.90;;;;;;5091339;28;20269;-64
2023/02/26 11:25:44;;;;;;;1.10;1.00;;;5.00;99.90;;;;;;5091475;28;20660;-65
2023/02/26 11:28:30;;;;;;;2.33;1.30;;;5.10;99.90;;;;;;5091678;28;20294;-64
2023/02/26 11:31:01;;;;;;;1.00;0.80;;;5.20;99.90;;;;;;5091059;28;20315;-63
2023/02/26 11:33:38;;;;;;;0.73;0.73;;;5.30;99.90;;;;;;5092075;28;20652;-63
2023/02/26 11:36:09;;;;;;;1.00;1.00;;;5.30;99.90;;;;;;5091859;28;20216;-65
2023/02/26 11:38:36;;;;;;;1.03;0.80;;;5.40;99.90;;;;;;5092048;28;20325;-66
2023/02/26 11:41:04;;;;;;;2.40;1.00;;;5.00;99.90;;;;;;5091589;28;20603;-67
2023/02/26 11:43:36;;;;;;;1.33;1.13;;;4.30;99.90;;;;;;5090140;28;20235;-67
2023/02/26 11:46:05;;;;;;;2.00;0.90;;;4.10;99.90;;;;;;5091480;28;20208;-67
2023/02/26 11:48:41;;;;;;;1.77;1.20;;;3.90;99.90;;;;;;5085263;28;20644;-69
2023/02/26 11:51:13;;;;;;;1.13;1.00;;;4.00;99.90;;;;;;5070728;28;20263;-69
2023/02/26 11:53:44;;;;;;;2.50;1.17;;;3.90;99.90;;;;;;5070843;28;20253;-66
2023/02/26 11:56:12;;;;;;;1.57;1.23;;;4.10;99.90;;;;;;5070067;28;20213;-64
2023/02/26 11:58:42;;;;;;;1.97;0.87;;;4.10;99.90;;;;;;5071007;28;20205;-68
2023/02/26 12:01:13;;;;;;;1.67;1.30;;;4.10;99.90;;;;;;5070993;28;20225;-68
2023/02/26 12:03:44;;;;;;;1.23;1.13;;;4.10;99.90;;;;;;5070896;28;20304;-66
2023/02/26 12:06:17;;;;;;;0.97;0.87;;;4.20;99.90;;;;;;5070405;28;20207;-68
2023/02/26 12:08:44;;;;;;;0.97;0.87;;;4.10;99.90;;;;;;5070458;28;20299;-69
2023/02/26 12:11:45;;;;;;;1.20;1.00;;;4.10;99.90;;;;;;5070938;28;20229;-66
2023/02/26 12:14:38;;;;;;;2.13;1.33;;;4.00;99.90;;;;;;5054463;28;20236;-67
2023/02/26 12:17:21;;;;;;;1.77;1.27;;;3.80;99.90;;;;;;5072594;28;20212;-65
2023/02/26 12:19:54;;;;;;;3.30;1.70;;;4.00;99.90;;;;;;5074844;28;20224;-69
2023/02/26 12:22:34;;;;;;;2.40;1.53;;;4.00;99.90;;;;;;5074658;28;20513;-67
2023/02/26 12:25:22;;;;;;;1.90;1.20;;;4.00;99.90;;;;;;5074550;28;20643;-67
2023/02/26 12:28:24;;;;;;;1.60;1.03;;;4.10;99.90;;;;;;5074682;28;20224;-67
2023/02/26 12:31:15;;;;;;;3.07;1.50;;;4.30;99.90;;;;;;5074522;28;20231;-66
2023/02/26 12:33:52;;;;;;;1.10;1.00;;;4.20;99.90;;;;;;5074451;28;20211;-66
2023/02/26 12:36:28;;;;;;;1.40;0.90;;;4.20;99.90;;;;;;5074207;28;20224;-67
2023/02/26 12:39:06;;;;;;;2.47;1.20;;;4.10;99.90;;;;;;5074417;28;20205;-68
2023/02/26 12:41:49;;;;;;;1.27;0.80;;;4.10;99.90;;;;;;5074846;28;20213;-67
2023/02/26 12:44:32;;;;;;;2.60;1.20;;;4.10;99.90;;;;;;5073523;28;20660;-65
2023/02/26 12:47:25;;;;;;;1.30;0.90;;;4.20;99.90;;;;;;5074390;28;20224;-69
2023/02/26 12:50:16;;;;;;;1.60;0.83;;;4.20;99.90;;;;;;5073984;28;20834;-66
2023/02/26 12:53:00;;;;;;;0.80;0.80;;;4.30;99.90;;;;;;5073856;28;20262;-66
2023/02/26 12:55:38;;;;;;;1.00;0.90;;;4.20;99.90;;;;;;5074075;28;20205;-66
2023/02/26 12:58:35;;;;;;;0.97;0.87;;;4.10;99.90;;;;;;5074176;28;20270;-66
2023/02/26 13:01:15;;;;;;;0.63;0.63;;;4.00;99.90;;;;;;5074144;28;20221;-67
2023/02/26 13:04:20;;;;;;;1.70;1.00;;;4.00;99.90;;;;;;5073947;28;20224;-66
2023/02/26 13:07:12;;;;;;;0.60;0.60;;;3.90;99.90;;;;;;5048335;28;20672;-67
2023/02/26 13:09:53;;;;;;;1.10;1.00;;;3.90;99.90;;;;;;5073777;28;20225;-66
2023/02/26 13:12:36;;;;;;;0.93;0.80;;;4.10;99.90;;;;;;5073856;28;20200;-67
2023/02/26 13:15:24;;;;;;;2.00;0.90;;;4.10;99.90;;;;;;5073105;28;20656;-67